createdAt,value
2022-12-17T00:02:11.979Z,93.69
2022-12-17T00:07:27.127Z,94.21
2022-12-17T00:12:43.864Z,93.51
2022-12-17T00:17:59.283Z,93.74
2022-12-17T00:23:18.590Z,94.72
2022-12-17T00:28:35.577Z,94.71
2022-12-17T00:33:51.026Z,93.97
2022-12-17T00:39:07.316Z,93.01
2022-12-17T00:44:24.274Z,94.61
2022-12-17T00:49:39.399Z,94.07
2022-12-17T00:54:54.533Z,93.65
2022-12-17T01:00:13.675Z,92.83
2022-12-17T01:05:29.902Z,93.63
2022-12-17T01:10:45.284Z,93.62
2022-12-17T01:16:03.992Z,92.62
2022-12-17T01:21:19.514Z,92.40
2022-12-17T01:26:35.185Z,92.13
2022-12-17T01:31:52.366Z,92.25
2022-12-17T01:37:07.645Z,91.79
2022-12-17T01:42:23.235Z,92.10
2022-12-17T01:47:40.352Z,91.81
2022-12-17T01:52:54.914Z,92.27
2022-12-17T01:58:10.531Z,92.01
2022-12-17T02:03:32.293Z,92.34
2022-12-17T02:08:52.413Z,92.31
2022-12-17T02:14:18.187Z,93.17
2022-12-17T02:19:38.520Z,97.58
2022-12-17T02:24:59.010Z,94.24
2022-12-17T02:30:18.668Z,93.79
2022-12-17T02:35:35.950Z,92.72
2022-12-17T02:40:51.986Z,92.17
2022-12-17T02:46:09.340Z,92.57
2022-12-17T02:51:25.338Z,93.21
2022-12-17T02:56:40.944Z,92.92
2022-12-17T03:01:58.367Z,92.30
2022-12-17T03:07:13.996Z,91.96
2022-12-17T03:12:31.263Z,91.67
2022-12-17T03:17:48.969Z,91.72
2022-12-17T03:23:12.542Z,91.17
2022-12-17T03:28:29.311Z,91.26
2022-12-17T03:33:49.169Z,95.16
2022-12-17T03:39:06.592Z,97.92
2022-12-17T03:44:22.384Z,97.72
2022-12-17T03:49:39.341Z,95.19
2022-12-17T03:54:54.369Z,94.28
2022-12-17T04:00:09.665Z,92.56
2022-12-17T04:05:29.492Z,92.65
2022-12-17T04:10:44.919Z,93.20
2022-12-17T04:16:00.388Z,92.96
2022-12-17T04:21:17.513Z,92.13
2022-12-17T04:26:32.814Z,91.91
2022-12-17T04:31:48.479Z,91.15
2022-12-17T04:37:05.573Z,91.58
2022-12-17T04:42:21.246Z,91.24
2022-12-17T04:47:36.596Z,91.51
2022-12-17T04:52:53.270Z,91.27
2022-12-17T04:58:08.331Z,91.56
2022-12-17T05:03:24.106Z,91.94
2022-12-17T05:08:41.665Z,92.13
2022-12-17T05:13:57.447Z,91.60
2022-12-17T05:19:13.173Z,91.92
2022-12-17T05:24:30.279Z,91.79
2022-12-17T05:29:45.933Z,90.91
2022-12-17T05:35:01.503Z,92.24
2022-12-17T05:40:18.079Z,92.48
2022-12-17T05:45:42.009Z,92.26
2022-12-17T05:50:57.216Z,92.84
2022-12-17T05:56:25.677Z,93.21
2022-12-17T06:01:41.363Z,92.47
2022-12-17T06:06:56.776Z,91.71
2022-12-17T06:12:28.457Z,92.12
2022-12-17T06:17:44.210Z,92.21
2022-12-17T06:22:59.245Z,91.99
2022-12-17T06:28:19.709Z,92.43
2022-12-17T06:33:35.233Z,92.28
2022-12-17T06:38:51.314Z,92.20
2022-12-17T06:44:08.400Z,91.87
2022-12-17T06:49:23.566Z,92.20
2022-12-17T06:54:38.932Z,92.12
2022-12-17T06:59:55.830Z,94.18
2022-12-17T07:05:11.216Z,91.95
2022-12-17T07:10:26.746Z,90.77
2022-12-17T07:15:43.740Z,90.01
2022-12-17T07:20:59.345Z,89.10
2022-12-17T07:26:15.591Z,89.12
2022-12-17T07:31:29.022Z,87.62
2022-12-17T07:36:44.717Z,86.45
2022-12-17T07:41:59.996Z,86.23
2022-12-17T07:47:17.214Z,85.54
2022-12-17T07:52:32.903Z,85.84
2022-12-17T07:57:48.449Z,86.48
2022-12-17T08:03:05.560Z,88.56
2022-12-17T08:08:22.102Z,92.10
2022-12-17T08:13:37.888Z,96.19
2022-12-17T08:18:55.009Z,95.50
2022-12-17T08:24:10.238Z,94.41
2022-12-17T08:29:25.891Z,94.84
2022-12-17T08:34:42.724Z,92.45
2022-12-17T08:39:57.949Z,90.12
2022-12-17T08:45:13.072Z,86.84
2022-12-17T08:50:30.083Z,82.14
2022-12-17T08:55:45.388Z,80.49
2022-12-17T09:01:01.016Z,77.02
2022-12-17T09:06:17.785Z,73.44
2022-12-17T09:11:33.107Z,70.11
2022-12-17T09:16:49.135Z,70.36
2022-12-17T09:22:14.522Z,70.65
2022-12-17T09:27:30.312Z,67.86
2022-12-17T09:32:46.665Z,68.48
2022-12-17T09:38:10.377Z,69.49
2022-12-17T09:43:48.840Z,66.86
2022-12-17T09:49:11.242Z,66.49
2022-12-17T09:54:48.093Z,74.02
2022-12-17T10:00:03.600Z,81.53
2022-12-17T10:05:32.814Z,82.88
2022-12-17T10:10:51.159Z,79.20
2022-12-17T10:16:06.307Z,78.92
2022-12-17T10:21:26.892Z,78.23
2022-12-17T10:26:44.823Z,72.90
2022-12-17T10:32:00.261Z,62.77
2022-12-17T10:37:16.011Z,69.39
2022-12-17T10:42:40.226Z,71.68
2022-12-17T10:48:02.675Z,72.00
2022-12-17T10:53:18.679Z,69.17
2022-12-17T10:58:39.743Z,72.43
2022-12-17T11:03:58.391Z,73.97
2022-12-17T11:09:14.335Z,68.21
2022-12-17T11:14:47.518Z,66.09
2022-12-17T11:20:05.027Z,64.42
2022-12-17T11:25:22.622Z,61.94
2022-12-17T11:30:39.577Z,66.87
2022-12-17T11:36:00.403Z,71.71
2022-12-17T11:41:21.782Z,75.71
2022-12-17T11:46:46.960Z,78.56
2022-12-17T11:52:06.572Z,80.99
2022-12-17T11:57:27.321Z,81.55
2022-12-17T12:02:53.728Z,81.37
2022-12-17T12:08:13.986Z,81.28
2022-12-17T12:13:32.177Z,83.16
2022-12-17T12:18:57.174Z,82.78
2022-12-17T12:24:20.965Z,82.99
2022-12-17T12:29:44.762Z,82.43
2022-12-17T12:35:02.061Z,83.46
2022-12-17T12:40:21.277Z,82.59
2022-12-17T12:45:51.146Z,83.68
2022-12-17T12:51:13.106Z,84.33
2022-12-17T12:56:43.908Z,83.62
2022-12-17T13:01:59.706Z,83.76
2022-12-17T13:06:59.179Z,81.81
2022-12-17T13:11:58.671Z,79.23
2022-12-17T13:16:58.924Z,78.80
2022-12-17T13:21:56.783Z,77.54
2022-12-17T13:26:56.107Z,78.54
2022-12-17T13:32:03.166Z,76.71
2022-12-17T13:37:03.105Z,75.92
2022-12-17T13:42:02.763Z,75.12
2022-12-17T13:47:01.129Z,71.95
2022-12-17T13:52:06.458Z,71.10
2022-12-17T13:57:10.413Z,72.20
2022-12-17T14:02:08.624Z,74.14
2022-12-17T14:07:07.075Z,73.17
2022-12-17T14:12:25.062Z,74.22
2022-12-17T14:17:25.611Z,75.16
2022-12-17T14:22:26.444Z,76.74
2022-12-17T14:27:25.957Z,77.36
2022-12-17T14:32:26.390Z,78.96
2022-12-17T14:37:25.867Z,79.58
2022-12-17T14:42:29.615Z,80.50
2022-12-17T14:47:30.672Z,80.75
2022-12-17T14:52:33.735Z,81.16
2022-12-17T14:57:31.675Z,81.23
2022-12-17T15:02:34.204Z,82.28
2022-12-17T15:07:32.919Z,82.92
2022-12-17T15:12:37.094Z,85.93
2022-12-17T15:17:36.332Z,85.22
2022-12-17T15:22:34.139Z,85.97
2022-12-17T15:27:32.004Z,86.27
2022-12-17T15:32:30.112Z,86.22
2022-12-17T15:37:29.427Z,87.89
2022-12-17T15:42:45.736Z,88.61
2022-12-17T15:47:43.763Z,88.80
2022-12-17T15:52:42.957Z,88.21
2022-12-17T15:57:40.832Z,88.86
2022-12-17T16:02:38.802Z,88.92
2022-12-17T16:07:37.985Z,89.07
2022-12-17T16:12:37.263Z,88.91
2022-12-17T16:17:36.178Z,89.83
2022-12-17T16:22:34.203Z,90.16
2022-12-17T16:27:32.147Z,91.54
2022-12-17T16:32:36.077Z,92.79
2022-12-17T16:37:34.414Z,92.74
2022-12-17T16:42:32.300Z,91.93
2022-12-17T16:47:31.786Z,92.37
2022-12-17T16:52:29.760Z,91.47
2022-12-17T16:57:27.615Z,90.49
2022-12-17T17:02:25.822Z,91.13
2022-12-17T17:07:25.737Z,91.63
2022-12-17T17:12:25.539Z,92.04
2022-12-17T17:17:54.488Z,94.52
2022-12-17T17:22:43.040Z,94.07
2022-12-17T17:27:40.897Z,94.55
2022-12-17T17:32:38.915Z,95.29
2022-12-17T17:37:36.839Z,95.95
2022-12-17T17:42:36.139Z,96.00
2022-12-17T17:47:34.565Z,96.73
2022-12-17T17:52:33.102Z,97.05
2022-12-17T17:57:31.045Z,96.90
2022-12-17T18:02:30.556Z,95.85
2022-12-17T18:07:28.684Z,94.70
2022-12-17T18:12:44.825Z,95.91
2022-12-17T18:17:44.164Z,97.28
2022-12-17T18:22:43.813Z,96.31
2022-12-17T18:27:42.662Z,98.49
2022-12-17T18:32:40.507Z,100.00
2022-12-17T18:37:40.180Z,100.00
2022-12-17T18:42:55.795Z,100.00
2022-12-17T18:47:53.814Z,100.00
2022-12-17T18:52:53.195Z,100.00
2022-12-17T18:57:51.058Z,99.70
2022-12-17T19:02:49.574Z,98.69
2022-12-17T19:07:47.628Z,99.32
2022-12-17T19:12:46.784Z,97.71
2022-12-17T19:17:44.881Z,98.36
2022-12-17T19:22:42.778Z,97.78
2022-12-17T19:27:40.703Z,97.72
2022-12-17T19:32:42.958Z,96.22
2022-12-17T19:37:40.811Z,95.77
2022-12-17T19:42:38.954Z,96.17
2022-12-17T19:47:36.861Z,94.64
2022-12-17T19:52:36.069Z,94.47
2022-12-17T19:57:35.275Z,93.80
2022-12-17T20:02:33.486Z,93.26
2022-12-17T20:07:31.577Z,93.87
2022-12-17T20:12:31.279Z,93.52
2022-12-17T20:17:29.295Z,91.65
2022-12-17T20:22:27.187Z,91.19
2022-12-17T20:27:25.063Z,91.20
2022-12-17T20:32:24.758Z,91.66
2022-12-17T20:37:22.785Z,91.81
2022-12-17T20:42:20.623Z,91.29
2022-12-17T20:47:18.761Z,90.66
2022-12-17T20:52:18.245Z,90.74
2022-12-17T20:57:16.128Z,90.33
2022-12-17T21:02:14.192Z,88.82
2022-12-17T21:07:12.244Z,89.14
2022-12-17T21:12:13.708Z,89.08
2022-12-17T21:17:11.949Z,89.71
2022-12-17T21:22:12.582Z,89.77
2022-12-17T21:27:14.908Z,89.94
2022-12-17T21:32:13.110Z,88.47
2022-12-17T21:37:12.219Z,89.37
2022-12-17T21:42:29.091Z,89.10
2022-12-17T21:47:27.092Z,87.94
2022-12-17T21:52:25.019Z,89.00
2022-12-17T21:57:24.362Z,89.29
2022-12-17T22:02:22.426Z,88.62
2022-12-17T22:07:27.875Z,90.49
2022-12-17T22:12:52.379Z,89.88
2022-12-17T22:17:51.228Z,88.56
2022-12-17T22:22:51.072Z,89.27
2022-12-17T22:27:50.472Z,89.69
2022-12-17T22:33:00.775Z,89.19
2022-12-17T22:39:56.838Z,88.26
2022-12-17T22:44:42.957Z,87.09
2022-12-17T22:48:57.508Z,85.91
2022-12-17T22:53:55.518Z,85.94
2022-12-17T22:58:54.925Z,85.75
2022-12-17T23:03:55.420Z,84.94
2022-12-17T23:08:54.868Z,85.04
2022-12-17T23:13:55.073Z,84.47
2022-12-17T23:18:53.623Z,83.87
2022-12-17T23:23:51.718Z,83.89
2022-12-17T23:28:49.974Z,83.86
2022-12-17T23:33:49.448Z,83.63
2022-12-17T23:38:47.631Z,84.33
2022-12-17T23:43:46.258Z,85.38
2022-12-17T23:48:46.038Z,85.08
2022-12-17T23:53:45.482Z,84.76
2022-12-17T23:58:43.974Z,83.93
